Time;durP1;ratioP1;P1;durP2;ratioP2;P2;SDS_P1;SDS_P2;PMS_P1;PMS_P2;Temp;Humidity;BMP_temperature;BMP_pressure;BME280_temperature;BME280_humidity;BME280_pressure;Samples;Min_cycle;Max_cycle;Signal;HPM_P1;HPM_P2
2021/12/08 00:01:09;;;;;;;;;1.00;1.00;;;;;10.30;63.55;99213.75;5018997;28;45278;-70
2021/12/08 00:03:35;;;;;;;;;1.00;0.00;;;;;10.29;63.17;99217.38;5019579;28;45366;-70
2021/12/08 00:06:01;;;;;;;;;0.50;0.25;;;;;10.27;63.21;99218.38;5018939;28;45237;-70
2021/12/08 00:08:29;;;;;;;;;0.00;0.00;;;;;10.28;63.37;99206.78;5018735;28;45445;-70
2021/12/08 00:13:23;;;;;;;;;0.00;0.00;;;;;10.18;62.86;99211.78;5019256;28;45283;-70
2021/12/08 00:15:52;;;;;;;;;0.75;0.00;;;;;10.22;63.05;99218.63;5034283;28;45434;-70
2021/12/08 00:18:23;;;;;;;;;0.00;0.00;;;;;10.16;63.07;99203.00;5019450;28;46578;-70
2021/12/08 00:20:48;;;;;;;;;0.50;0.50;;;;;10.15;62.86;99203.94;5020524;28;45240;-70
2021/12/08 00:23:15;;;;;;;;;1.00;0.00;;;;;10.15;62.91;99209.25;5022496;28;45270;-70
2021/12/08 00:25:42;;;;;;;;;0.50;0.50;;;;;10.11;62.79;99205.06;5022357;28;45469;-70
2021/12/08 00:28:08;;;;;;;;;0.75;0.00;;;;;10.06;62.87;99199.97;5022081;28;46479;-70
2021/12/08 00:30:37;;;;;;;;;0.00;0.00;;;;;10.02;62.62;99195.75;5022049;28;45378;-70
2021/12/08 00:33:04;;;;;;;;;0.50;0.50;;;;;10.05;63.01;99192.91;5022222;28;45249;-70
2021/12/08 00:35:29;;;;;;;;;1.00;1.00;;;;;10.06;63.18;99194.63;5022332;28;45174;-70
2021/12/08 00:37:56;;;;;;;;;0.50;0.50;;;;;10.05;63.28;99202.72;5021553;28;45510;-70
2021/12/08 00:40:23;;;;;;;;;3.50;1.00;;;;;10.02;62.66;99196.63;5021991;28;45411;-70
2021/12/08 00:42:50;;;;;;;;;1.50;0.00;;;;;9.95;62.12;99192.53;5037669;28;45388;-70
2021/12/08 00:45:17;;;;;;;;;2.00;0.00;;;;;9.93;62.32;99199.78;5022047;28;45204;-70
2021/12/08 00:47:44;;;;;;;;;1.00;0.00;;;;;9.90;62.65;99210.59;5021780;28;45440;-70
2021/12/08 00:50:11;;;;;;;;;0.00;0.00;;;;;9.86;62.55;99202.88;5021736;28;45253;-70
2021/12/08 00:52:37;;;;;;;;;0.00;0.00;;;;;9.83;62.25;99215.41;5021313;28;45433;-70
2021/12/08 00:55:12;;;;;;;;;0.00;0.00;;;;;9.88;62.11;99235.63;5021914;28;45391;-70
2021/12/08 00:57:38;;;;;;;;;0.00;0.00;;;;;9.80;62.13;99230.69;5021609;28;45541;-70
2021/12/08 01:00:08;;;;;;;;;0.00;0.00;;;;;9.82;61.90;99234.13;5022013;28;45489;-70
2021/12/08 01:02:38;;;;;;;;;1.00;1.00;;;;;9.78;61.70;99224.59;5021879;28;45314;-70
2021/12/08 01:05:15;;;;;;;;;0.25;0.00;;;;;9.75;62.03;99246.06;5021761;28;45483;-70
2021/12/08 01:07:41;;;;;;;;;1.00;0.00;;;;;9.74;61.89;99236.34;5021083;28;46340;-70
2021/12/08 01:10:12;;;;;;;;;0.00;0.00;;;;;9.75;61.92;99243.41;5021285;28;45317;-70
2021/12/08 01:12:37;;;;;;;;;1.00;0.00;;;;;9.65;61.99;99229.69;5021613;28;45446;-70
2021/12/08 01:15:04;;;;;;;;;0.00;0.00;;;;;9.69;61.79;99235.72;5020256;28;45846;-70
2021/12/08 01:17:30;;;;;;;;;1.00;0.00;;;;;9.70;61.51;99240.13;5021108;28;45281;-70
2021/12/08 01:19:55;;;;;;;;;1.00;0.00;;;;;9.68;61.77;99244.69;5021474;28;45306;-70
2021/12/08 01:22:20;;;;;;;;;0.00;0.00;;;;;9.68;61.67;99239.34;5021212;28;45415;-70
2021/12/08 01:24:46;;;;;;;;;0.00;0.00;;;;;9.70;61.95;99224.13;5021390;28;45269;-69
2021/12/08 01:27:11;;;;;;;;;0.00;0.00;;;;;9.72;61.74;99216.91;5021004;28;45234;-70
2021/12/08 01:29:37;;;;;;;;;2.00;0.00;;;;;9.66;61.20;99211.94;5020803;28;45291;-70
2021/12/08 01:32:03;;;;;;;;;0.00;0.00;;;;;9.61;61.31;99205.03;5021295;28;45494;-70
2021/12/08 01:34:28;;;;;;;;;2.00;0.00;;;;;9.59;61.30;99217.56;5021425;28;45227;-70
2021/12/08 01:36:54;;;;;;;;;0.00;0.00;;;;;9.50;60.95;99206.53;5020863;28;45154;-70
2021/12/08 01:39:19;;;;;;;;;0.75;0.00;;;;;9.42;61.44;99214.91;5021139;28;45137;-70
2021/12/08 01:41:45;;;;;;;;;1.50;0.50;;;;;9.38;61.55;99218.69;5021247;28;45430;-70
2021/12/08 01:46:55;;;;;;;;;0.75;0.00;;;;;9.40;61.88;99230.97;5009449;28;45329;-70
2021/12/08 01:49:20;;;;;;;;;1.00;1.00;;;;;9.42;61.72;99230.91;5020926;28;45456;-69
2021/12/08 01:51:47;;;;;;;;;4.25;0.50;;;;;9.44;61.53;99237.03;5020622;28;45474;-70
2021/12/08 01:54:12;;;;;;;;;0.00;0.00;;;;;9.43;61.77;99257.44;5020481;28;45573;-70
2021/12/08 01:56:37;;;;;;;;;0.00;0.00;;;;;9.45;61.56;99250.28;5020879;28;45334;-70
2021/12/08 01:59:05;;;;;;;;;0.00;0.00;;;;;9.44;61.71;99258.34;5020766;28;45359;-69
2021/12/08 02:01:33;;;;;;;;;1.50;0.00;;;;;9.43;62.26;99260.13;5021181;28;45320;-70
2021/12/08 02:04:03;;;;;;;;;0.00;0.00;;;;;9.47;61.87;99255.50;5020635;28;45166;-70
2021/12/08 02:06:31;;;;;;;;;0.00;0.00;;;;;9.49;61.63;99260.75;5020589;28;46191;-70
2021/12/08 02:08:57;;;;;;;;;0.25;0.00;;;;;9.45;61.67;99252.94;5020484;28;45225;-70
2021/12/08 02:11:22;;;;;;;;;0.00;0.00;;;;;9.46;61.83;99262.63;5020816;28;45242;-70
2021/12/08 02:13:51;;;;;;;;;0.25;0.25;;;;;9.49;61.77;99274.06;5020620;28;45406;-70
2021/12/08 02:16:16;;;;;;;;;0.00;0.00;;;;;9.46;61.72;99281.28;5020379;28;46200;-70
2021/12/08 02:18:45;;;;;;;;;0.00;0.00;;;;;9.48;61.52;99289.19;5020362;28;45318;-69
2021/12/08 02:21:24;;;;;;;;;0.00;0.00;;;;;9.43;61.62;99302.72;5020445;28;45223;-70
2021/12/08 02:23:50;;;;;;;;;0.00;0.00;;;;;9.43;61.56;99312.53;5020207;28;45425;-70
2021/12/08 02:26:15;;;;;;;;;0.50;0.00;;;;;9.44;61.73;99316.94;5020068;28;45372;-70
2021/12/08 02:28:41;;;;;;;;;1.50;0.00;;;;;9.41;61.53;99301.94;5020268;28;45340;-70
2021/12/08 02:31:10;;;;;;;;;0.00;0.00;;;;;9.40;61.92;99321.53;5020240;28;45550;-70
2021/12/08 02:47:31;;;;;;;;;0.00;0.00;;;;;9.30;61.68;99317.59;5019880;28;45430;-69
2021/12/08 02:49:58;;;;;;;;;0.75;0.00;;;;;9.29;61.68;99321.22;5020093;28;45428;-70
2021/12/08 02:52:24;;;;;;;;;0.00;0.00;;;;;9.28;61.49;99314.16;5019385;28;45633;-70
2021/12/08 02:54:52;;;;;;;;;0.00;0.00;;;;;9.23;61.90;99311.72;5020236;28;45206;-69
2021/12/08 02:57:25;;;;;;;;;1.00;0.25;;;;;9.21;61.76;99310.09;5019298;28;46136;-70
2021/12/08 02:59:50;;;;;;;;;1.00;0.00;;;;;9.20;61.87;99325.19;5020138;28;45303;-70
2021/12/08 03:02:16;;;;;;;;;1.00;0.00;;;;;9.19;61.36;99320.81;5020018;28;45307;-70
2021/12/08 03:04:42;;;;;;;;;0.00;0.00;;;;;9.14;61.84;99312.19;5020010;28;45514;-70
2021/12/08 03:07:09;;;;;;;;;0.00;0.00;;;;;9.18;61.75;99316.41;5019578;28;45408;-70
2021/12/08 03:09:35;;;;;;;;;0.50;0.00;;;;;9.16;61.53;99307.66;5019914;28;45588;-70
2021/12/08 03:12:02;;;;;;;;;1.25;0.25;;;;;9.16;61.64;99310.31;5019585;28;45382;-70
2021/12/08 03:14:30;;;;;;;;;1.00;0.00;;;;;9.09;61.57;99295.59;5019899;28;45216;-70
2021/12/08 03:16:59;;;;;;;;;1.00;1.00;;;;;9.02;61.36;99300.34;5019166;28;45473;-70
2021/12/08 03:19:26;;;;;;;;;0.75;0.00;;;;;9.06;61.60;99295.72;5019888;28;45558;-70
2021/12/08 03:21:53;;;;;;;;;2.00;0.00;;;;;9.06;61.24;99288.59;5019264;28;45249;-70
2021/12/08 03:24:32;;;;;;;;;0.00;0.00;;;;;9.00;61.58;99286.22;5019540;28;45468;-70
2021/12/08 03:29:46;;;;;;;;;0.00;0.00;;;;;9.02;61.85;99283.50;5019650;28;45484;-69
2021/12/08 03:32:16;;;;;;;;;0.00;0.00;;;;;9.03;61.34;99277.25;5006769;28;45273;-69
2021/12/08 03:34:51;;;;;;;;;0.00;0.00;;;;;8.99;61.58;99254.41;5019481;28;45447;-70
2021/12/08 03:37:20;;;;;;;;;0.00;0.00;;;;;9.00;61.65;99264.94;5019354;28;46375;-70
2021/12/08 03:39:46;;;;;;;;;0.00;0.00;;;;;8.98;61.63;99258.84;5019488;28;45553;-70
2021/12/08 03:42:12;;;;;;;;;3.00;0.00;;;;;8.96;61.51;99259.88;5019518;28;45306;-69
2021/12/08 03:44:38;;;;;;;;;0.00;0.00;;;;;8.97;61.67;99274.88;5019192;28;45457;-70
2021/12/08 03:47:13;;;;;;;;;0.75;0.00;;;;;8.96;62.05;99271.38;5019184;28;45405;-70
2021/12/08 03:49:38;;;;;;;;;0.00;0.00;;;;;8.99;61.40;99259.72;5019359;28;45434;-70
2021/12/08 03:52:04;;;;;;;;;0.00;0.00;;;;;9.04;61.97;99258.53;5019002;28;45541;-70
2021/12/08 03:54:30;;;;;;;;;0.00;0.00;;;;;9.04;61.27;99266.53;5020929;28;45272;-69
2021/12/08 03:56:56;;;;;;;;;1.50;0.00;;;;;9.03;61.58;99263.94;5022573;28;46275;-69
2021/12/08 03:59:21;;;;;;;;;1.50;0.00;;;;;9.01;61.91;99268.47;5022672;28;45555;-70
2021/12/08 04:01:47;;;;;;;;;2.50;1.50;;;;;9.02;61.62;99270.19;5022903;28;45344;-70
2021/12/08 04:04:13;;;;;;;;;1.25;0.25;;;;;8.95;61.56;99266.97;5021958;28;45318;-70
2021/12/08 04:06:49;;;;;;;;;2.00;1.25;;;;;8.93;61.67;99268.00;5022759;28;45469;-69
2021/12/08 04:09:24;;;;;;;;;0.75;0.00;;;;;8.92;62.34;99263.59;5022392;28;45537;-69
2021/12/08 04:11:50;;;;;;;;;0.50;0.00;;;;;8.93;61.62;99263.53;5022838;28;45242;-69
2021/12/08 04:14:18;;;;;;;;;1.00;0.00;;;;;8.93;62.02;99268.00;5021798;28;45382;-69
2021/12/08 04:16:52;;;;;;;;;1.00;1.00;;;;;8.87;61.73;99258.50;5022465;28;45469;-70
2021/12/08 04:19:19;;;;;;;;;0.50;0.00;;;;;8.86;61.92;99267.44;5009511;28;45533;-69
2021/12/08 04:21:48;;;;;;;;;1.75;1.00;;;;;8.88;61.83;99273.53;5022163;28;45341;-70
2021/12/08 04:24:14;;;;;;;;;1.00;0.00;;;;;8.87;61.87;99262.03;5021906;28;45737;-70
2021/12/08 04:26:50;;;;;;;;;0.25;0.25;;;;;8.92;61.71;99271.59;5022008;28;45594;-70
2021/12/08 04:29:19;;;;;;;;;0.75;0.00;;;;;8.88;61.34;99269.06;5022409;28;45265;-69
2021/12/08 04:31:45;;;;;;;;;0.00;0.00;;;;;8.84;61.86;99274.63;5022222;28;45234;-69
2021/12/08 04:34:18;;;;;;;;;0.00;0.00;;;;;8.86;61.58;99272.75;5021712;28;45522;-69
2021/12/08 04:36:48;;;;;;;;;2.00;0.00;;;;;8.86;61.84;99281.59;5022078;28;45356;-70
2021/12/08 04:39:26;;;;;;;;;1.00;0.25;;;;;8.87;61.96;99274.47;5021887;28;45313;-70
2021/12/08 04:41:59;;;;;;;;;0.00;0.00;;;;;8.82;61.56;99277.38;5022098;28;45221;-70
2021/12/08 04:44:35;;;;;;;;;1.00;0.75;;;;;8.83;62.12;99283.53;5021478;28;45433;-70
2021/12/08 04:47:29;;;;;;;;;2.25;0.00;;;;;8.78;61.71;99259.81;5021841;28;45480;-70
2021/12/08 05:06:16;;;;;;;;;2.50;0.00;;;;;8.84;61.97;99315.41;5020460;28;45307;-70
2021/12/08 05:08:41;;;;;;;;;1.00;0.00;;;;;8.78;62.06;99313.03;5021173;28;45269;-69
2021/12/08 05:11:11;;;;;;;;;1.75;0.25;;;;;8.85;61.68;99324.25;5021606;28;45467;-69
2021/12/08 05:13:37;;;;;;;;;6.25;0.00;;;;;8.84;61.73;99312.75;5021300;28;45411;-69
2021/12/08 05:16:04;;;;;;;;;3.00;2.00;;;;;8.81;61.69;99314.69;5021647;28;45378;-69
2021/12/08 05:18:34;;;;;;;;;1.00;1.00;;;;;8.79;61.73;99317.44;5020890;28;46119;-69
2021/12/08 05:21:09;;;;;;;;;1.00;1.00;;;;;8.77;61.77;99337.94;5021195;28;45246;-69
2021/12/08 05:23:48;;;;;;;;;0.00;0.00;;;;;8.78;62.14;99322.81;5020999;28;45324;-69
2021/12/08 05:26:35;;;;;;;;;1.00;1.00;;;;;8.77;62.26;99321.97;5020962;28;45486;-69
2021/12/08 05:29:05;;;;;;;;;1.00;1.00;;;;;8.74;62.00;99319.44;5020774;28;45301;-69
2021/12/08 05:31:33;;;;;;;;;2.00;1.25;;;;;8.80;62.14;99328.91;5021253;28;45323;-69
2021/12/08 05:33:59;;;;;;;;;2.00;0.00;;;;;8.82;61.94;99341.22;5036692;28;45380;-69
2021/12/08 05:36:25;;;;;;;;;1.75;1.00;;;;;8.75;61.70;99342.44;5021113;28;45564;-69
2021/12/08 05:38:53;;;;;;;;;2.00;0.00;;;;;8.77;61.78;99342.38;5020573;28;45399;-69
2021/12/08 05:41:23;;;;;;;;;0.50;0.50;;;;;8.78;61.94;99355.59;5020897;28;45516;-69
2021/12/08 05:43:49;;;;;;;;;2.00;1.00;;;;;8.73;61.92;99351.44;5021389;28;45377;-69
2021/12/08 05:46:17;;;;;;;;;3.00;1.75;;;;;8.70;61.92;99352.44;5020642;28;45493;-69
2021/12/08 05:48:46;;;;;;;;;1.00;1.00;;;;;8.67;62.05;99342.81;5019824;28;46393;-69
2021/12/08 05:51:17;;;;;;;;;0.00;0.00;;;;;8.68;61.84;99349.00;5020037;28;45480;-69
2021/12/08 05:53:46;;;;;;;;;2.00;0.00;;;;;8.72;61.88;99353.25;5035857;28;45285;-69
2021/12/08 05:56:12;;;;;;;;;2.00;1.00;;;;;8.73;61.88;99341.66;5036101;28;45574;-69
2021/12/08 05:58:40;;;;;;;;;1.00;1.00;;;;;8.71;62.07;99343.53;5020365;28;45451;-69
2021/12/08 06:01:17;;;;;;;;;1.00;0.50;;;;;8.73;61.85;99357.63;5035923;28;45314;-69
2021/12/08 06:03:45;;;;;;;;;2.25;0.00;;;;;8.72;61.63;99350.59;5019572;28;45429;-69
2021/12/08 06:06:12;;;;;;;;;2.00;2.00;;;;;8.73;61.72;99346.13;5035887;28;45459;-69
2021/12/08 06:08:39;;;;;;;;;0.00;0.00;;;;;8.67;61.84;99323.31;5019893;28;46646;-69
2021/12/08 06:11:08;;;;;;;;;1.00;1.00;;;;;8.67;61.96;99326.84;5018996;28;45453;-69
2021/12/08 06:13:37;;;;;;;;;1.50;1.50;;;;;8.71;61.83;99341.72;5035799;28;45418;-69
2021/12/08 06:16:04;;;;;;;;;2.50;2.50;;;;;8.71;61.68;99335.56;5020066;28;45452;-69
2021/12/08 06:18:37;;;;;;;;;2.00;1.00;;;;;8.62;61.85;99318.22;5018874;28;46199;-69
2021/12/08 06:21:07;;;;;;;;;1.75;1.75;;;;;8.67;61.74;99333.94;5007747;28;45628;-69
2021/12/08 06:23:34;;;;;;;;;4.00;1.50;;;;;8.72;61.91;99337.28;5020370;28;45427;-69
2021/12/08 06:25:59;;;;;;;;;1.00;1.00;;;;;8.66;61.84;99318.94;5020401;28;45330;-69
2021/12/08 06:28:25;;;;;;;;;3.50;2.00;;;;;8.67;61.96;99323.31;5019518;28;45405;-69
2021/12/08 06:30:51;;;;;;;;;2.00;2.00;;;;;8.68;61.79;99341.00;5022494;28;47020;-69
2021/12/08 06:33:20;;;;;;;;;5.75;3.00;;;;;8.71;61.59;99356.84;5020203;28;45391;-69
2021/12/08 06:35:52;;;;;;;;;3.00;2.75;;;;;8.67;61.60;99353.47;5019011;28;45776;-69
2021/12/08 06:38:19;;;;;;;;;1.00;1.00;;;;;8.62;61.60;99346.59;5019298;28;46563;-69
2021/12/08 06:40:58;;;;;;;;;3.00;1.25;;;;;8.65;61.85;99362.44;5019753;28;45578;-69
2021/12/08 06:43:27;;;;;;;;;2.00;1.25;;;;;8.66;61.86;99370.34;5020092;28;45298;-69
2021/12/08 06:45:57;;;;;;;;;2.00;2.00;;;;;8.66;61.62;99366.84;5021441;28;45244;-69
2021/12/08 06:48:28;;;;;;;;;1.50;1.50;;;;;8.69;61.67;99372.00;5019424;28;45343;-69
2021/12/08 06:50:58;;;;;;;;;2.50;1.00;;;;;8.64;61.21;99364.25;5018593;28;45796;-69
2021/12/08 06:53:25;;;;;;;;;1.00;1.00;;;;;8.63;61.52;99353.66;5019213;28;45289;-69
2021/12/08 06:56:00;;;;;;;;;1.25;1.00;;;;;8.58;61.57;99355.69;5034771;28;45870;-69
2021/12/08 06:58:31;;;;;;;;;7.75;7.00;;;;;8.59;61.77;99357.41;5018757;28;47053;-69
2021/12/08 07:03:45;;;;;;;;;0.00;0.00;;;;;8.57;61.63;99356.59;5020128;28;45453;-69
2021/12/08 07:06:40;;;;;;;;;1.50;1.00;;;;;8.56;61.78;99365.53;5019405;28;45448;-69
2021/12/08 07:09:06;;;;;;;;;2.50;1.00;;;;;8.56;61.81;99360.22;5019210;28;45851;-69
2021/12/08 07:11:33;;;;;;;;;2.00;0.50;;;;;8.53;61.70;99340.78;5018829;28;45587;-69
2021/12/08 07:13:58;;;;;;;;;2.00;2.00;;;;;8.56;61.77;99336.28;5018971;28;45525;-69
2021/12/08 07:16:35;;;;;;;;;0.00;0.00;;;;;8.55;61.80;99334.53;5018183;28;45518;-69
2021/12/08 07:19:10;;;;;;;;;2.00;2.00;;;;;8.55;61.57;99340.72;5018499;28;45444;-69
2021/12/08 07:21:45;;;;;;;;;2.50;1.50;;;;;8.58;61.56;99358.34;5019785;28;45481;-69
2021/12/08 07:24:21;;;;;;;;;2.00;1.00;;;;;8.60;61.68;99370.63;5019362;28;45512;-75
2021/12/08 07:26:49;;;;;;;;;3.75;1.25;;;;;8.59;61.58;99358.28;5018913;28;45465;-79
2021/12/08 07:29:20;;;;;;;;;3.75;2.00;;;;;8.62;61.82;99363.44;5021452;28;47048;-74
2021/12/08 07:31:52;;;;;;;;;2.00;2.00;;;;;8.61;61.62;99376.81;5022883;28;45543;-74
2021/12/08 07:34:19;;;;;;;;;0.75;0.25;;;;;8.63;61.80;99388.25;5037906;28;45539;-77
2021/12/08 07:36:48;;;;;;;;;3.00;2.00;;;;;8.63;61.89;99393.56;5022392;28;45486;-71
2021/12/08 07:39:18;;;;;;;;;2.00;2.00;;;;;8.63;61.52;99383.78;5022495;28;46294;-71
2021/12/08 07:41:49;;;;;;;;;1.75;1.00;;;;;8.62;61.35;99381.19;5022808;28;45326;-71
2021/12/08 07:44:16;;;;;;;;;2.50;1.00;;;;;8.60;61.55;99391.91;5021722;28;45232;-71
2021/12/08 07:46:44;;;;;;;;;2.50;2.00;;;;;8.56;61.49;99400.09;5022444;28;45404;-71
2021/12/08 07:49:13;;;;;;;;;1.75;1.75;;;;;8.55;61.73;99403.69;5021567;28;45481;-71
2021/12/08 07:51:43;;;;;;;;;1.75;1.00;;;;;8.53;61.90;99409.94;5022402;28;45752;-71
2021/12/08 07:54:10;;;;;;;;;0.50;0.50;;;;;8.59;61.75;99421.25;5022725;28;45357;-70
2021/12/08 07:56:38;;;;;;;;;2.25;1.00;;;;;8.59;61.84;99407.97;5020069;28;45422;-71
2021/12/08 07:59:09;;;;;;;;;3.00;1.00;;;;;8.59;61.59;99410.63;5017065;28;45371;-70
2021/12/08 08:01:40;;;;;;;;;2.25;1.00;;;;;8.59;61.84;99406.16;5020721;28;45394;-71
2021/12/08 08:04:09;;;;;;;;;3.00;2.00;;;;;8.60;61.97;99409.66;5021762;28;45515;-71
2021/12/08 08:06:37;;;;;;;;;2.00;0.75;;;;;8.60;61.86;99407.00;5022034;28;45504;-71
2021/12/08 08:09:07;;;;;;;;;0.00;0.00;;;;;8.60;61.62;99404.34;5022153;28;45330;-70
2021/12/08 08:11:41;;;;;;;;;3.00;1.50;;;;;8.53;61.99;99385.13;5022089;28;45339;-71
2021/12/08 08:14:07;;;;;;;;;1.50;1.50;;;;;8.59;61.96;99398.16;5024814;28;45304;-71
2021/12/08 08:16:35;;;;;;;;;1.00;1.00;;;;;8.55;61.91;99391.25;5022033;28;45283;-71
2021/12/08 08:19:09;;;;;;;;;1.00;1.00;;;;;8.50;61.92;99383.50;5020687;28;46184;-72
2021/12/08 08:21:41;;;;;;;;;1.00;1.00;;;;;8.56;61.89;99387.66;5021816;28;45701;-72
2021/12/08 08:24:07;;;;;;;;;2.00;2.00;;;;;8.58;61.89;99399.09;5021115;28;45497;-72
2021/12/08 08:26:34;;;;;;;;;1.75;1.00;;;;;8.56;61.83;99392.97;5036979;28;45791;-71
2021/12/08 08:29:02;;;;;;;;;3.00;2.00;;;;;8.62;61.97;99395.38;5020593;28;48284;-75
2021/12/08 08:31:32;;;;;;;;;2.00;1.50;;;;;8.57;61.90;99385.84;5021178;28;45549;-71
2021/12/08 08:33:58;;;;;;;;;1.25;1.00;;;;;8.63;62.17;99401.53;5017436;28;45469;-72
2021/12/08 08:36:31;;;;;;;;;2.75;1.00;;;;;8.57;61.71;99402.69;5018927;28;45573;-72
2021/12/08 08:39:06;;;;;;;;;2.25;1.00;;;;;8.62;62.10;99414.00;5019929;28;46697;-72
2021/12/08 08:41:59;;;;;;;;;3.00;1.00;;;;;8.62;61.81;99415.78;5020113;28;45405;-73
2021/12/08 08:44:40;;;;;;;;;3.00;0.25;;;;;8.58;61.94;99408.88;5019903;28;45553;-70
2021/12/08 08:47:11;;;;;;;;;1.25;1.25;;;;;8.62;61.78;99421.97;5021377;28;45279;-70
2021/12/08 08:49:39;;;;;;;;;1.00;1.00;;;;;8.62;61.81;99411.34;5021743;28;46273;-71
2021/12/08 08:52:24;;;;;;;;;3.75;0.00;;;;;8.60;61.92;99409.66;5019199;28;45966;-71
2021/12/08 08:54:53;;;;;;;;;1.00;0.00;;;;;8.58;61.88;99406.22;5019941;28;45537;-70
2021/12/08 08:57:34;;;;;;;;;1.00;1.00;;;;;8.47;62.33;99380.09;5021327;28;45311;-70
2021/12/08 09:00:19;;;;;;;;;1.50;0.00;;;;;8.57;62.18;99397.38;5016822;28;45269;-71
2021/12/08 09:02:47;;;;;;;;;2.00;2.00;;;;;8.60;61.92;99409.66;5021389;28;45568;-71
2021/12/08 09:05:21;;;;;;;;;4.00;2.00;;;;;8.52;62.03;99407.38;5020999;28;45663;-63
2021/12/08 09:07:51;;;;;;;;;2.75;2.00;;;;;8.56;61.99;99405.44;5020892;28;45315;-71
2021/12/08 09:10:27;;;;;;;;;2.00;0.75;;;;;8.51;62.05;99406.47;5016923;28;47270;-71
2021/12/08 09:13:05;;;;;;;;;2.50;1.00;;;;;8.61;62.01;99412.25;5020882;28;45400;-71
2021/12/08 09:15:38;;;;;;;;;1.25;1.25;;;;;8.66;61.75;99418.22;5020648;28;45388;-71
2021/12/08 09:18:06;;;;;;;;;2.00;1.00;;;;;8.65;61.91;99431.59;5020455;28;45363;-71
2021/12/08 09:20:34;;;;;;;;;4.75;2.00;;;;;8.68;62.19;99444.75;5020184;28;46279;-71
2021/12/08 09:23:07;;;;;;;;;3.50;2.00;;;;;8.69;61.84;99444.69;5010841;28;45532;-71
2021/12/08 09:25:58;;;;;;;;;1.00;1.00;;;;;8.72;61.64;99443.72;5020578;28;45246;-70
2021/12/08 09:28:34;;;;;;;;;6.25;2.75;;;;;8.72;61.43;99449.03;5022563;28;45426;-72
2021/12/08 09:31:07;;;;;;;;;2.00;2.00;;;;;8.78;61.67;99442.56;5020551;28;46425;-70
2021/12/08 09:33:38;;;;;;;;;0.00;0.00;;;;;8.77;61.68;99451.44;5023280;28;45644;-73
2021/12/08 09:36:11;;;;;;;;;2.00;1.00;;;;;8.82;61.69;99450.34;5020192;28;45247;-73
2021/12/08 09:38:52;;;;;;;;;2.00;1.75;;;;;8.76;61.30;99436.44;5020213;28;45413;-76
2021/12/08 09:41:36;;;;;;;;;1.00;1.00;;;;;8.76;61.90;99439.97;5019546;28;46272;-74
2021/12/08 09:44:34;;;;;;;;;0.00;0.00;;;;;8.86;61.74;99464.34;5019007;28;45562;-72
2021/12/08 09:47:00;;;;;;;;;1.00;1.00;;;;;8.79;61.40;99450.47;5023897;28;45512;-74
2021/12/08 09:49:26;;;;;;;;;0.75;0.50;;;;;8.84;61.59;99453.78;5020142;28;45390;-74
2021/12/08 09:51:54;;;;;;;;;1.50;1.00;;;;;8.80;61.80;99444.19;5018541;28;45331;-74
2021/12/08 09:54:22;;;;;;;;;1.00;1.00;;;;;8.82;61.61;99446.78;5018332;28;45366;-75
2021/12/08 09:56:49;;;;;;;;;2.00;1.00;;;;;8.90;61.58;99464.16;5019557;28;45341;-74
2021/12/08 09:59:16;;;;;;;;;16.75;11.75;;;;;8.80;61.13;99438.88;5019694;28;45493;-75
2021/12/08 10:01:43;;;;;;;;;1.00;1.00;;;;;8.92;61.47;99456.09;5012981;28;45549;-72
2021/12/08 10:04:12;;;;;;;;;2.50;1.00;;;;;8.90;61.23;99442.88;5017637;28;45479;-73
2021/12/08 10:06:41;;;;;;;;;2.75;1.25;;;;;8.93;61.50;99441.84;5019686;28;45370;-74
2021/12/08 10:09:07;;;;;;;;;2.00;1.00;;;;;8.93;61.52;99433.00;5012744;28;45460;-74
2021/12/08 10:11:34;;;;;;;;;3.25;3.00;;;;;8.95;61.37;99431.97;5018504;28;46003;-74
2021/12/08 10:14:00;;;;;;;;;3.25;1.25;;;;;8.99;61.24;99435.38;5019348;28;45318;-74
2021/12/08 10:16:27;;;;;;;;;2.00;1.50;;;;;8.90;61.28;99415.38;5019921;28;45434;-74
2021/12/08 10:18:53;;;;;;;;;2.50;1.00;;;;;9.00;61.46;99429.97;5019495;28;45638;-75
2021/12/08 10:21:20;;;;;;;;;1.75;1.75;;;;;9.02;61.28;99422.78;5019044;28;47063;-74
2021/12/08 10:23:48;;;;;;;;;1.00;1.00;;;;;9.01;61.18;99413.06;5019310;28;45241;-74
2021/12/08 10:26:25;;;;;;;;;2.50;2.00;;;;;9.09;61.08;99418.03;5033731;28;45514;-73
2021/12/08 10:28:56;;;;;;;;;1.25;1.25;;;;;9.13;61.31;99435.59;5019015;28;45485;-74
2021/12/08 10:31:31;;;;;;;;;2.25;2.25;;;;;9.18;61.16;99440.69;5005369;28;47881;-74
2021/12/08 10:34:22;;;;;;;;;2.75;1.25;;;;;9.22;61.40;99442.25;5017147;28;45440;-74
2021/12/08 10:36:52;;;;;;;;;3.00;1.00;;;;;9.24;61.13;99443.94;5035025;28;45432;-74
2021/12/08 10:39:26;;;;;;;;;3.00;2.00;;;;;9.25;60.89;99442.13;5017992;28;46197;-73
2021/12/08 10:41:59;;;;;;;;;1.75;1.75;;;;;9.30;60.49;99444.56;5018512;28;45312;-73
2021/12/08 10:44:42;;;;;;;;;0.00;0.00;;;;;9.33;60.71;99444.44;5018761;28;45324;-73
2021/12/08 10:47:09;;;;;;;;;1.25;0.00;;;;;9.25;60.27;99424.38;5019527;28;45400;-74
2021/12/08 10:55:05;;;;;;;;;2.25;1.25;;;;;9.38;60.75;99427.28;5018873;28;45380;-74
2021/12/08 10:57:34;;;;;;;;;0.50;0.50;;;;;9.37;60.95;99424.69;5019493;28;45319;-73
2021/12/08 11:00:16;;;;;;;;;0.00;0.00;;;;;9.46;60.22;99434.91;5019076;28;45332;-73
2021/12/08 11:02:46;;;;;;;;;1.00;1.00;;;;;9.49;59.85;99437.44;5033147;28;47280;-74
2021/12/08 11:05:24;;;;;;;;;1.75;0.00;;;;;9.50;59.88;99440.94;5034474;28;45795;-74
2021/12/08 11:08:08;;;;;;;;;2.25;1.00;;;;;9.53;60.46;99441.66;5018917;28;45586;-73
2021/12/08 11:10:45;;;;;;;;;5.00;1.00;;;;;9.48;59.53;99427.69;5019326;28;45524;-74
2021/12/08 11:13:11;;;;;;;;;1.50;1.00;;;;;9.57;59.55;99443.25;5033819;28;47062;-73
2021/12/08 11:15:39;;;;;;;;;2.00;1.00;;;;;9.57;59.54;99440.59;5018227;28;45235;-73
2021/12/08 11:18:16;;;;;;;;;1.00;1.00;;;;;9.58;60.17;99444.94;5019470;28;45473;-74
2021/12/08 11:21:15;;;;;;;;;1.75;0.00;;;;;9.61;59.66;99442.16;5019312;28;45297;-73
2021/12/08 11:23:46;;;;;;;;;1.00;1.00;;;;;9.60;59.69;99435.06;5033406;28;46461;-74
2021/12/08 11:26:35;;;;;;;;;0.50;0.50;;;;;9.60;59.85;99437.75;5015527;28;45800;-74
2021/12/08 11:29:08;;;;;;;;;2.00;0.75;;;;;9.63;59.24;99434.94;5017635;28;45358;-71
2021/12/08 11:31:59;;;;;;;;;2.00;1.00;;;;;9.66;59.81;99428.59;5017208;28;45548;-72
2021/12/08 11:34:29;;;;;;;;;1.00;1.00;;;;;9.64;59.23;99423.34;5020733;28;45290;-74
2021/12/08 11:36:56;;;;;;;;;1.50;1.00;;;;;9.71;59.09;99428.38;5018722;28;45335;-74
2021/12/08 11:39:34;;;;;;;;;1.00;1.00;;;;;9.72;59.02;99427.41;5019216;28;45312;-74
2021/12/08 11:42:08;;;;;;;;;1.00;1.00;;;;;9.71;59.27;99428.38;5019222;28;45410;-74
2021/12/08 11:44:37;;;;;;;;;2.50;1.00;;;;;9.69;59.21;99430.22;5019122;28;45246;-74
2021/12/08 11:47:09;;;;;;;;;0.00;0.00;;;;;9.76;59.58;99439.66;5019193;28;45530;-74
2021/12/08 11:49:47;;;;;;;;;1.75;1.00;;;;;9.73;59.62;99423.81;5019206;28;45302;-74
2021/12/08 11:52:19;;;;;;;;;2.75;1.75;;;;;9.80;59.07;99436.75;5018693;28;45382;-74
2021/12/08 11:55:02;;;;;;;;;0.00;0.00;;;;;9.84;59.61;99442.81;5019046;28;46325;-74
2021/12/08 11:57:42;;;;;;;;;2.00;1.00;;;;;9.86;59.14;99440.06;5018775;28;45451;-74
2021/12/08 12:00:18;;;;;;;;;1.00;0.00;;;;;9.87;58.84;99447.97;5009595;28;45298;-74
2021/12/08 12:02:46;;;;;;;;;0.75;0.75;;;;;9.89;59.43;99448.78;5019097;28;45417;-74
2021/12/08 12:05:15;;;;;;;;;1.75;1.00;;;;;9.85;59.23;99444.53;5017777;28;47667;-73
2021/12/08 12:07:41;;;;;;;;;1.00;1.00;;;;;9.87;58.87;99444.44;5018228;28;45602;-74
2021/12/08 12:10:09;;;;;;;;;1.00;1.00;;;;;9.94;59.05;99454.75;5018565;28;45335;-74
2021/12/08 12:12:37;;;;;;;;;1.25;1.25;;;;;9.97;59.20;99459.03;5018115;28;45387;-73
2021/12/08 12:15:05;;;;;;;;;2.25;2.25;;;;;10.01;58.92;99453.47;5020904;28;45642;-73
2021/12/08 12:17:30;;;;;;;;;3.25;1.00;;;;;9.96;58.65;99446.66;5022190;28;45575;-74
2021/12/08 12:20:06;;;;;;;;;1.75;1.75;;;;;10.04;58.72;99457.81;5037785;28;45353;-74
2021/12/08 12:23:05;;;;;;;;;3.00;1.00;;;;;10.06;59.06;99455.91;5009895;28;45471;-73
2021/12/08 12:26:07;;;;;;;;;1.00;1.00;;;;;10.07;58.64;99451.44;5021777;28;46109;-74
2021/12/08 12:29:10;;;;;;;;;0.25;0.00;;;;;10.09;58.84;99454.88;5021955;28;45590;-74
2021/12/08 12:32:09;;;;;;;;;1.75;1.00;;;;;10.09;58.70;99461.09;5022388;28;45588;-74
2021/12/08 12:34:39;;;;;;;;;2.00;2.00;;;;;10.07;58.75;99462.97;5022091;28;45551;-74
2021/12/08 12:37:24;;;;;;;;;1.00;1.00;;;;;10.12;58.98;99476.94;5021663;28;46420;-74
2021/12/08 12:39:55;;;;;;;;;1.00;1.00;;;;;10.08;58.57;99490.50;5021779;28;45320;-73
2021/12/08 12:42:21;;;;;;;;;0.00;0.00;;;;;10.06;58.64;99493.25;5022090;28;45326;-73
2021/12/08 12:45:09;;;;;;;;;2.00;2.00;;;;;10.08;59.09;99501.16;5021961;28;45506;-74